createdAt,value
2022-11-06T00:06:23.308Z,94.24
2022-11-06T00:16:23.345Z,93.37
2022-11-06T00:26:23.651Z,93.73
2022-11-06T00:36:23.667Z,95.26
2022-11-06T00:46:24.009Z,96.20
2022-11-06T00:56:24.035Z,96.20
2022-11-06T01:06:24.272Z,96.60
2022-11-06T01:16:24.528Z,96.81
2022-11-06T01:26:37.632Z,96.54
2022-11-06T01:36:25.829Z,96.89
2022-11-06T01:46:25.151Z,96.73
2022-11-06T01:56:25.172Z,96.08
2022-11-06T02:06:25.505Z,96.55
2022-11-06T02:16:25.517Z,95.83
2022-11-06T02:26:25.850Z,94.33
2022-11-06T02:36:25.883Z,93.19
2022-11-06T02:46:26.189Z,96.02
2022-11-06T02:56:26.237Z,97.00
2022-11-06T03:06:26.551Z,97.89
2022-11-06T03:16:26.573Z,97.20
2022-11-06T03:26:26.902Z,97.56
2022-11-06T03:36:29.060Z,98.23
2022-11-06T03:46:27.152Z,98.07
2022-11-06T03:56:27.194Z,97.96
2022-11-06T04:06:29.239Z,98.59
2022-11-06T04:16:27.477Z,98.90
2022-11-06T04:26:28.977Z,98.27
2022-11-06T04:36:30.234Z,98.53
2022-11-06T04:46:28.203Z,98.43
2022-11-06T04:56:29.409Z,98.84
2022-11-06T05:06:30.122Z,98.84
2022-11-06T05:16:28.674Z,98.74
2022-11-06T05:26:29.008Z,98.68
2022-11-06T05:36:29.047Z,98.57
2022-11-06T05:46:47.815Z,98.78
2022-11-06T05:56:30.424Z,99.30
2022-11-06T06:06:29.812Z,98.81
2022-11-06T06:16:29.762Z,88.69
2022-11-06T06:26:29.997Z,89.04
2022-11-06T06:36:30.225Z,87.66
2022-11-06T06:46:30.456Z,88.42
2022-11-06T06:56:30.682Z,87.66
2022-11-06T07:06:31.053Z,86.72
2022-11-06T07:16:31.106Z,86.89
2022-11-06T07:26:31.404Z,85.40
2022-11-06T07:36:31.425Z,85.26
2022-11-06T07:46:31.759Z,88.34
2022-11-06T07:56:31.780Z,81.73
2022-11-06T08:06:32.110Z,80.83
2022-11-06T08:16:32.137Z,78.21
2022-11-06T08:26:32.451Z,75.94
2022-11-06T08:36:32.489Z,75.84
2022-11-06T08:46:33.797Z,75.56
2022-11-06T08:56:32.820Z,74.43
2022-11-06T09:06:33.152Z,71.89
2022-11-06T09:16:33.185Z,69.18
2022-11-06T09:26:33.291Z,68.51
2022-11-06T09:36:33.350Z,66.56
2022-11-06T09:46:33.645Z,65.20
2022-11-06T09:56:33.668Z,62.71
2022-11-06T10:06:34.056Z,58.22
2022-11-06T10:16:34.167Z,55.58
2022-11-06T10:26:34.478Z,67.50
2022-11-06T10:36:36.234Z,70.57
2022-11-06T10:46:34.594Z,67.41
2022-11-06T10:56:34.642Z,68.36
2022-11-06T11:06:34.952Z,67.75
2022-11-06T11:16:35.132Z,66.01
2022-11-06T11:26:35.189Z,66.42
2022-11-06T11:36:35.409Z,67.18
2022-11-06T11:46:35.747Z,65.39
2022-11-06T11:57:02.984Z,62.82
2022-11-06T12:06:37.234Z,62.41
2022-11-06T12:16:36.385Z,64.18
2022-11-06T12:26:36.505Z,67.36
2022-11-06T12:36:36.748Z,66.69
2022-11-06T12:46:36.647Z,68.07
2022-11-06T12:56:37.156Z,68.68
2022-11-06T13:06:37.191Z,68.85
2022-11-06T13:16:37.323Z,67.66
2022-11-06T13:26:37.367Z,70.78
2022-11-06T13:36:37.907Z,70.57
2022-11-06T13:46:37.800Z,73.40
2022-11-06T13:56:38.161Z,76.06
2022-11-06T14:06:38.195Z,76.37
2022-11-06T14:16:38.678Z,75.45
2022-11-06T14:26:38.514Z,75.89
2022-11-06T14:36:38.831Z,78.59
2022-11-06T14:46:38.904Z,78.76
2022-11-06T14:56:39.415Z,79.68
2022-11-06T15:06:39.342Z,80.40
2022-11-06T15:16:39.621Z,81.15
2022-11-06T15:26:39.796Z,80.88
2022-11-06T15:36:39.960Z,81.60
2022-11-06T15:46:40.040Z,82.67
2022-11-06T15:56:40.218Z,83.15
2022-11-06T16:06:40.402Z,83.70
2022-11-06T16:16:40.817Z,84.32
2022-11-06T16:26:40.732Z,85.08
2022-11-06T16:36:41.090Z,86.35
2022-11-06T16:46:41.309Z,85.53
2022-11-06T16:56:41.718Z,86.15
2022-11-06T17:06:42.168Z,85.43
2022-11-06T17:16:42.171Z,86.11
2022-11-06T17:26:42.324Z,85.08
2022-11-06T17:36:43.900Z,87.94
2022-11-06T17:46:42.821Z,85.94
2022-11-06T17:56:42.988Z,85.33
2022-11-06T18:06:43.763Z,86.56
2022-11-06T18:16:44.134Z,87.84
2022-11-06T18:26:42.981Z,88.49
2022-11-06T18:36:43.561Z,88.90
2022-11-06T18:46:43.519Z,89.11
2022-11-06T18:56:44.628Z,88.29
2022-11-06T19:06:44.142Z,87.22
2022-11-06T19:16:44.125Z,84.40
2022-11-06T19:26:44.328Z,83.75
2022-11-06T19:36:44.266Z,84.26
2022-11-06T19:46:44.521Z,84.71
2022-11-06T19:57:27.640Z,84.81
2022-11-06T20:06:46.188Z,81.65
2022-11-06T20:16:45.374Z,81.65
2022-11-06T20:26:45.614Z,85.12
2022-11-06T20:36:46.592Z,84.61
2022-11-06T20:46:47.929Z,86.87
2022-11-06T20:56:47.150Z,89.17
2022-11-06T21:06:46.309Z,89.73
2022-11-06T21:16:46.413Z,90.09
2022-11-06T21:26:46.401Z,90.00
2022-11-06T21:36:46.421Z,89.31
2022-11-06T21:46:46.951Z,88.45
2022-11-06T21:56:46.843Z,88.14
2022-11-06T22:06:47.096Z,89.17
2022-11-06T22:16:47.184Z,89.69
2022-11-06T22:26:47.457Z,87.63
2022-11-06T22:36:47.495Z,85.84
2022-11-06T22:46:47.801Z,82.82
2022-11-06T22:56:47.861Z,81.10
2022-11-06T23:06:48.152Z,83.85
2022-11-06T23:16:48.176Z,78.50
2022-11-06T23:26:48.508Z,80.38
2022-11-06T23:36:48.672Z,78.70
2022-11-06T23:46:48.951Z,81.92
2022-11-06T23:56:48.968Z,81.65
